Time;durP1;ratioP1;P1;durP2;ratioP2;P2;SDS_P1;SDS_P2;PMS_P1;PMS_P2;Temp;Humidity;BMP_temperature;BMP_pressure;BME280_temperature;BME280_humidity;BME280_pressure;Samples;Min_cycle;Max_cycle;Signal;HPM_P1;HPM_P2
2023/11/15 00:04:47;;;;;;;14.10;6.80;;;;;;;8.72;82.89;97183.56;435122;1255;99346;-40
2023/11/15 00:24:55;;;;;;;16.50;5.60;;;;;;;8.41;83.29;97153.25;435280;1251;108418;-39
2023/11/15 00:34:59;;;;;;;12.50;5.60;;;;;;;8.25;83.65;97143.56;435158;1255;99231;-40
2023/11/15 01:05:11;;;;;;;17.40;6.10;;;;;;;7.87;85.04;97139.85;435240;1255;110288;-41
2023/11/15 01:15:15;;;;;;;12.70;4.80;;;;;;;7.85;85.27;97140.09;435218;1252;107556;-42
2023/11/15 01:35:23;;;;;;;12.60;3.90;;;;;;;7.91;86.10;97139.20;435247;1252;109348;-41
2023/11/15 01:45:27;;;;;;;11.20;4.60;;;;;;;7.91;86.78;97138.04;435290;1251;98953;-41
2023/11/15 01:55:32;;;;;;;6.00;3.30;;;;;;;7.95;87.09;97137.65;435219;1251;111990;-41
2023/11/15 02:05:35;;;;;;;9.20;3.20;;;;;;;8.05;87.34;97136.44;436164;1251;108268;-39
2023/11/15 02:15:40;;;;;;;6.10;3.20;;;;;;;8.17;87.82;97138.02;435281;1250;99276;-40
2023/11/15 02:25:43;;;;;;;8.80;4.10;;;;;;;8.25;87.84;97136.96;435247;1254;107806;-41
2023/11/15 02:35:47;;;;;;;10.30;4.20;;;;;;;8.28;88.56;97141.58;435106;1253;99205;-41
2023/11/15 02:45:51;;;;;;;7.50;3.30;;;;;;;8.30;88.39;97147.88;435180;1250;112268;-41
2023/11/15 02:55:55;;;;;;;6.40;3.40;;;;;;;8.29;88.68;97139.35;435383;1250;108574;-40
2023/11/15 03:05:59;;;;;;;5.00;2.90;;;;;;;8.28;89.07;97152.59;435398;1253;99339;-39
2023/11/15 03:16:04;;;;;;;7.90;2.50;;;;;;;8.31;89.42;97157.48;435376;1250;107971;-42
2023/11/15 03:26:08;;;;;;;7.70;3.30;;;;;;;8.35;89.64;97163.06;435485;1254;99269;-41
2023/11/15 03:36:12;;;;;;;4.10;2.60;;;;;;;8.39;89.65;97169.25;435307;1254;111737;-41
2023/11/15 03:46:16;;;;;;;12.50;4.00;;;;;;;8.37;89.68;97168.76;435320;1254;108355;-42
2023/11/15 03:56:20;;;;;;;5.70;3.00;;;;;;;8.26;89.86;97172.63;435353;1254;99339;-39
2023/11/15 04:06:23;;;;;;;9.90;5.30;;;;;;;8.20;89.86;97175.84;435325;1253;107003;-42
2023/11/15 04:16:27;;;;;;;3.30;2.40;;;;;;;8.20;90.13;97177.69;435285;1250;98592;-40
2023/11/15 04:26:32;;;;;;;8.10;3.00;;;;;;;8.18;90.20;97174.73;435234;1250;111324;-40
2023/11/15 04:36:36;;;;;;;8.50;3.10;;;;;;;8.16;90.39;97175.45;435414;1255;107712;-40
2023/11/15 04:46:40;;;;;;;3.50;2.90;;;;;;;8.15;90.35;97179.29;435251;1254;99209;-39
2023/11/15 04:56:44;;;;;;;17.00;7.90;;;;;;;8.14;90.45;97180.64;435193;1253;108278;-40
2023/11/15 05:06:48;;;;;;;9.40;6.20;;;;;;;8.09;90.71;97177.55;435442;1250;98005;-41
2023/11/15 05:16:52;;;;;;;5.80;4.60;;;;;;;8.03;90.72;97186.42;435317;1250;110496;-40
2023/11/15 05:26:56;;;;;;;5.10;3.00;;;;;;;7.99;90.54;97198.64;435255;1250;108508;-41
2023/11/15 05:36:59;;;;;;;27.50;11.30;;;;;;;7.98;90.52;97201.54;435434;1253;98826;-40
2023/11/15 05:47:04;;;;;;;6.70;3.80;;;;;;;8.03;90.78;97214.48;435451;1255;108544;-41
2023/11/15 05:57:07;;;;;;;6.10;4.10;;;;;;;8.08;90.88;97217.76;435399;1253;98015;-40
2023/11/15 06:07:11;;;;;;;7.00;3.70;;;;;;;8.11;90.93;97231.54;435515;1250;112925;-40
2023/11/15 06:17:14;;;;;;;11.70;5.80;;;;;;;8.04;91.02;97240.77;435399;1250;107465;-39
2023/11/15 06:27:18;;;;;;;3.50;2.80;;;;;;;7.96;91.09;97242.52;435376;1253;98629;-40
2023/11/15 06:37:23;;;;;;;2.80;2.40;;;;;;;7.94;91.38;97255.50;435498;1254;108639;-39
2023/11/15 06:57:30;;;;;;;3.20;2.10;;;;;;;7.94;91.89;97275.19;435254;1254;111695;-40
2023/11/15 07:07:35;;;;;;;2.10;1.80;;;;;;;7.96;92.07;97286.95;435332;1255;108142;-39
2023/11/15 07:17:39;;;;;;;10.60;3.30;;;;;;;7.98;92.35;97303.08;435434;1253;97972;-40
2023/11/15 07:27:44;;;;;;;2.80;2.10;;;;;;;8.07;92.42;97312.52;435467;1253;107379;-40
2023/11/15 07:37:48;;;;;;;10.40;5.60;;;;;;;8.07;92.65;97324.58;435268;1255;98002;-41
2023/11/15 07:47:53;;;;;;;4.70;3.40;;;;;;;8.09;92.79;97337.72;435544;1254;112109;-40
2023/11/15 07:57:57;;;;;;;4.60;3.30;;;;;;;8.14;92.76;97357.83;435298;1255;108772;-40
2023/11/15 08:08:00;;;;;;;11.90;6.60;;;;;;;8.14;93.06;97368.09;435388;1256;99237;-40
2023/11/15 08:18:04;;;;;;;9.50;4.90;;;;;;;8.09;93.48;97383.78;435443;1255;108370;-39
2023/11/15 08:28:09;;;;;;;4.00;2.80;;;;;;;8.15;93.45;97394.17;435373;1250;99286;-40
2023/11/15 08:38:14;;;;;;;7.00;3.90;;;;;;;8.25;93.65;97402.84;435511;1256;112195;-41
2023/11/15 08:58:22;;;;;;;5.90;2.90;;;;;;;8.48;94.07;97430.54;435417;1256;99250;-40
2023/11/15 09:08:25;;;;;;;6.90;4.00;;;;;;;8.57;94.02;97441.83;435462;1253;108241;-40
2023/11/15 09:18:30;;;;;;;3.90;2.10;;;;;;;8.69;94.37;97447.02;435183;1256;99233;-39
2023/11/15 09:28:34;;;;;;;4.20;2.70;;;;;;;8.71;94.53;97452.98;435307;1254;110776;-41
2023/11/15 10:09:01;;;;;;;2.60;2.40;;;;;;;8.88;95.05;97470.08;435152;1254;98008;-40
2023/11/15 10:19:14;;;;;;;5.30;2.30;;;;;;;8.94;95.64;97477.88;435164;1255;112627;-40
2023/11/15 10:29:19;;;;;;;6.80;2.10;;;;;;;9.03;95.53;97494.44;435170;1264;107643;-40
2023/11/15 10:39:22;;;;;;;3.00;1.50;;;;;;;8.99;95.64;97496.66;435220;1256;98771;-40
2023/11/15 10:49:26;;;;;;;3.50;1.60;;;;;;;9.05;95.42;97511.08;435294;1255;107514;-39
2023/11/15 10:59:29;;;;;;;1.50;1.10;;;;;;;9.19;95.10;97522.60;435308;1251;99228;-40
2023/11/15 11:09:37;;;;;;;4.70;3.10;;;;;;;9.15;94.89;97537.28;435496;1263;111691;-39
2023/11/15 11:19:41;;;;;;;4.30;2.50;;;;;;;8.98;94.61;97551.42;435398;1254;108205;-39
2023/11/15 11:30:17;;;;;;;3.20;1.80;;;;;;;9.08;94.74;97566.46;435309;1264;99202;-40
2023/11/15 11:40:26;;;;;;;4.60;2.20;;;;;;;9.53;94.14;97557.48;435549;1251;107443;-40
2023/11/15 11:50:30;;;;;;;3.00;2.00;;;;;;;9.50;93.37;97560.73;435477;1256;99237;-40
2023/11/15 12:00:34;;;;;;;22.30;9.10;;;;;;;9.48;92.79;97578.23;435197;1254;112551;-40
2023/11/15 12:10:40;;;;;;;8.90;3.60;;;;;;;9.38;92.27;97604.33;435347;1251;108147;-40
2023/11/15 12:20:46;;;;;;;9.80;5.70;;;;;;;9.28;92.10;97617.48;435422;1251;99171;-41
2023/11/15 12:30:52;;;;;;;9.50;3.60;;;;;;;9.32;91.71;97636.98;435343;1254;108326;-39
2023/11/15 12:41:00;;;;;;;4.50;2.40;;;;;;;9.17;91.30;97648.98;435149;1253;408506;-41
2023/11/15 12:51:08;;;;;;;6.60;2.40;;;;;;;8.95;90.95;97660.39;435565;1253;112275;-40
2023/11/15 13:01:17;;;;;;;5.40;1.30;;;;;;;8.79;89.94;97682.14;435272;1254;108760;-40
2023/11/15 13:21:29;;;;;;;5.30;0.90;;;;;;;8.35;88.28;97717.62;435296;1254;107638;-39
2023/11/15 13:31:33;;;;;;;2.60;1.10;;;;;;;8.20;87.85;97741.83;435213;1251;99237;-40
2023/11/15 13:41:37;;;;;;;1.70;1.10;;;;;;;8.15;87.38;97765.08;435237;1254;111922;-39
2023/11/15 13:51:40;;;;;;;2.00;1.00;;;;;;;8.00;87.33;97776.84;435397;1254;106704;-39
2023/11/15 14:01:44;;;;;;;5.00;2.50;;;;;;;7.90;87.21;97777.86;435374;1254;98843;-40
2023/11/15 14:21:52;;;;;;;5.40;2.80;;;;;;;7.84;87.35;97791.39;435491;1253;97999;-38
2023/11/15 14:31:55;;;;;;;7.10;2.90;;;;;;;7.84;87.23;97807.11;435423;1251;110895;-39
2023/11/15 14:41:59;;;;;;;12.40;6.10;;;;;;;7.85;87.30;97816.55;435486;1250;108293;-39
2023/11/15 15:02:10;;;;;;;3.00;2.10;;;;;;;7.70;87.61;97848.80;435276;1254;108055;-40
2023/11/15 15:12:14;;;;;;;8.00;5.00;;;;;;;7.68;87.69;97865.71;435470;1254;97973;-39
2023/11/15 15:22:18;;;;;;;4.50;2.80;;;;;;;7.58;88.00;97884.64;435423;1254;112906;-42
2023/11/15 15:32:22;;;;;;;5.60;2.40;;;;;;;7.45;88.30;97893.45;435413;1250;106637;-39
2023/11/15 15:42:25;;;;;;;5.60;3.70;;;;;;;7.28;89.51;97902.71;435478;1253;98814;-40
2023/11/15 15:52:29;;;;;;;4.30;2.30;;;;;;;7.08;90.23;97913.62;435444;1249;107674;-39
2023/11/15 16:12:38;;;;;;;4.30;2.50;;;;;;;7.12;90.95;97936.35;435414;1263;111073;-40
2023/11/15 16:22:41;;;;;;;4.80;3.10;;;;;;;7.13;91.30;97946.52;435177;1249;108578;-40
2023/11/15 16:32:45;;;;;;;7.30;4.50;;;;;;;7.15;91.25;97968.34;435234;1254;99116;-40
2023/11/15 16:42:49;;;;;;;10.30;6.70;;;;;;;7.12;91.18;97999.45;435316;1250;108385;-40
2023/11/15 16:52:53;;;;;;;8.90;6.50;;;;;;;7.02;91.47;98018.92;435738;1253;99263;-40
2023/11/15 17:02:56;;;;;;;5.60;3.50;;;;;;;6.96;91.87;98043.68;435505;1249;111996;-40
2023/11/15 17:13:02;;;;;;;5.70;2.20;;;;;;;6.95;91.84;98060.47;435198;1249;108379;-41
2023/11/15 17:23:08;;;;;;;4.80;3.00;;;;;;;6.92;92.24;98069.24;435461;1250;98770;-40
2023/11/15 17:33:11;;;;;;;5.10;3.50;;;;;;;6.90;92.47;98088.23;435426;1254;109405;-40
2023/11/15 17:43:15;;;;;;;11.40;7.30;;;;;;;6.87;92.62;98110.55;435291;1253;97972;-40
2023/11/15 17:53:19;;;;;;;14.20;9.60;;;;;;;6.74;93.04;98124.16;435327;1253;112641;-39
2023/11/15 18:03:23;;;;;;;6.20;4.20;;;;;;;6.74;92.97;98143.52;435477;1250;109347;-40
2023/11/15 18:13:27;;;;;;;7.70;5.60;;;;;;;6.73;93.05;98153.23;435426;1253;99227;-42
2023/11/15 18:23:30;;;;;;;9.40;6.20;;;;;;;6.64;93.18;98169.94;435171;1249;108564;-40
2023/11/15 18:33:36;;;;;;;13.00;6.90;;;;;;;6.68;93.24;98183.92;435205;1250;98006;-40
2023/11/15 18:53:44;;;;;;;5.60;3.20;;;;;;;6.61;93.30;98198.25;435342;1254;109104;-40
2023/11/15 19:03:48;;;;;;;5.00;3.40;;;;;;;6.48;93.66;98215.60;435331;1254;101346;-40
2023/11/15 19:13:52;;;;;;;12.90;8.20;;;;;;;6.33;93.69;98219.81;435240;1250;108443;-40
2023/11/15 19:23:57;;;;;;;9.30;6.20;;;;;;;6.33;93.63;98236.58;435443;1250;99211;-41
2023/11/15 19:34:01;;;;;;;19.80;11.10;;;;;;;6.30;93.63;98248.64;435487;1250;111689;-40
2023/11/15 19:44:06;;;;;;;17.60;10.00;;;;;;;6.21;93.72;98264.86;435434;1254;108534;-39
2023/11/15 19:54:10;;;;;;;21.10;12.00;;;;;;;6.26;93.61;98285.23;435278;1254;101542;-41
2023/11/15 20:04:15;;;;;;;24.00;13.40;;;;;;;6.33;93.48;98291.61;435197;1253;107461;-41
2023/11/15 20:24:23;;;;;;;7.20;5.20;;;;;;;6.38;93.31;98296.39;435534;1253;113261;-40
2023/11/15 20:34:27;;;;;;;12.10;7.80;;;;;;;6.23;93.24;98299.88;435424;1254;107170;-40
2023/11/15 20:44:30;;;;;;;7.60;5.60;;;;;;;6.08;93.47;98310.17;435286;1250;97996;-40
2023/11/15 20:54:35;;;;;;;8.30;5.90;;;;;;;6.00;93.22;98320.61;435229;1254;109335;-40
2023/11/15 21:14:42;;;;;;;7.40;5.40;;;;;;;5.96;93.24;98326.96;435441;1254;112530;-43
2023/11/15 21:24:45;;;;;;;8.20;7.00;;;;;;;5.96;93.26;98331.85;435200;1272;107140;-41
2023/11/15 21:34:49;;;;;;;11.00;8.00;;;;;;;5.98;93.58;98344.55;435387;1254;99243;-42
2023/11/15 21:54:57;;;;;;;8.60;7.10;;;;;;;5.85;93.29;98355.00;435332;1250;98008;-39
2023/11/15 22:05:00;;;;;;;24.60;15.00;;;;;;;5.86;93.48;98363.96;435189;1251;111493;-42
2023/11/15 22:15:09;;;;;;;20.90;13.20;;;;;;;5.94;93.54;98372.54;435250;1250;107453;-41
2023/11/15 22:25:13;;;;;;;13.90;10.70;;;;;;;6.05;93.85;98380.30;435487;1251;98002;-40
2023/11/15 22:35:17;;;;;;;41.50;26.60;;;;;;;6.02;93.72;98385.92;435341;1254;107054;-40
2023/11/15 22:45:21;;;;;;;13.50;9.00;;;;;;;5.95;93.51;98386.55;435351;1250;99208;-41
2023/11/15 22:55:25;;;;;;;14.30;9.60;;;;;;;5.89;93.40;98385.96;435444;1253;112041;-40
2023/11/15 23:05:29;;;;;;;13.90;7.30;;;;;;;5.83;93.37;98402.16;435324;1250;108162;-41
2023/11/15 23:15:33;;;;;;;13.00;9.70;;;;;;;5.76;93.23;98405.13;435385;1250;99215;-39
2023/11/15 23:25:37;;;;;;;16.80;10.40;;;;;;;5.68;93.59;98419.17;435566;1254;107749;-40
2023/11/15 23:35:41;;;;;;;12.50;7.90;;;;;;;5.64;93.35;98421.27;435481;1254;99234;-40
2023/11/15 23:45:45;;;;;;;10.50;6.90;;;;;;;5.59;93.05;98432.09;435408;1255;112111;-41
2023/11/15 23:55:50;;;;;;;11.90;7.70;;;;;;;5.61;93.28;98442.29;435312;1253;108160;-41
